createdAt,value
2019-02-14T00:01:56.962Z,77.29
2019-02-14T00:04:26.899Z,78.13
2019-02-14T00:06:56.816Z,77.21
2019-02-14T00:09:26.826Z,78.14
2019-02-14T00:11:56.732Z,78.09
2019-02-14T00:14:26.600Z,78.27
2019-02-14T00:16:56.511Z,78.33
2019-02-14T00:19:26.473Z,77.83
2019-02-14T00:21:56.388Z,78.15
2019-02-14T00:24:26.412Z,78.14
2019-02-14T00:26:56.242Z,78.12
2019-02-14T00:29:26.129Z,78.61
2019-02-14T00:31:56.020Z,78.55
2019-02-14T00:34:26.379Z,78.11
2019-02-14T00:36:56.388Z,78.13
2019-02-14T00:39:26.254Z,76.86
2019-02-14T00:41:56.162Z,77.04
2019-02-14T00:44:27.063Z,77.62
2019-02-14T00:46:56.912Z,78.39
2019-02-14T00:49:26.794Z,79.11
2019-02-14T00:51:56.692Z,78.94
2019-02-14T00:54:26.680Z,78.36
2019-02-14T00:56:56.546Z,77.89
2019-02-14T00:59:26.459Z,78.12
2019-02-14T01:01:56.319Z,76.73
2019-02-14T01:04:26.224Z,76.62
2019-02-14T01:06:56.233Z,76.70
2019-02-14T01:09:27.043Z,77.26
2019-02-14T01:11:57.062Z,77.24
2019-02-14T01:14:26.967Z,78.31
2019-02-14T01:16:56.828Z,79.22
2019-02-14T01:19:26.785Z,78.45
2019-02-14T01:21:56.687Z,78.41
2019-02-14T01:24:26.641Z,76.79
2019-02-14T01:26:56.610Z,78.21
2019-02-14T01:29:26.618Z,78.92
2019-02-14T01:31:56.435Z,79.67
2019-02-14T01:34:26.377Z,80.28
2019-02-14T01:36:56.283Z,79.47
2019-02-14T01:39:26.227Z,79.88
2019-02-14T01:41:56.059Z,80.12
2019-02-14T01:44:25.958Z,80.79
2019-02-14T01:46:55.805Z,81.04
2019-02-14T01:49:25.670Z,81.20
2019-02-14T01:51:55.639Z,81.38
2019-02-14T01:54:25.487Z,81.92
2019-02-14T01:56:55.358Z,82.06
2019-02-14T01:59:25.196Z,81.81
2019-02-14T02:01:55.363Z,81.73
2019-02-14T02:04:25.254Z,81.79
2019-02-14T02:06:55.264Z,80.98
2019-02-14T02:09:25.242Z,80.46
2019-02-14T02:11:55.230Z,80.49
2019-02-14T02:14:25.067Z,80.41
2019-02-14T02:16:54.947Z,80.70
2019-02-14T02:19:24.808Z,80.75
2019-02-14T02:21:54.696Z,80.73
2019-02-14T02:24:24.564Z,80.64
2019-02-14T02:26:54.554Z,80.98
2019-02-14T02:29:24.508Z,80.20
2019-02-14T02:31:54.577Z,80.20
2019-02-14T02:34:24.645Z,79.43
2019-02-14T02:36:54.550Z,79.40
2019-02-14T02:39:24.402Z,79.14
2019-02-14T02:41:54.247Z,79.08
2019-02-14T02:44:24.135Z,79.29
2019-02-14T02:46:54.040Z,79.21
2019-02-14T02:49:23.992Z,78.55
2019-02-14T02:51:53.828Z,78.40
2019-02-14T02:54:23.842Z,78.66
2019-02-14T02:56:53.728Z,78.12
2019-02-14T02:59:23.566Z,77.32
2019-02-14T03:01:53.504Z,76.50
2019-02-14T03:04:23.442Z,75.97
2019-02-14T03:06:53.452Z,75.95
2019-02-14T03:09:23.354Z,76.44
2019-02-14T03:11:53.316Z,76.83
2019-02-14T03:14:23.304Z,78.02
2019-02-14T03:16:53.265Z,77.22
2019-02-14T03:19:23.231Z,76.58
2019-02-14T03:21:53.119Z,75.02
2019-02-14T03:24:22.947Z,74.92
2019-02-14T03:26:52.803Z,75.52
2019-02-14T03:29:22.691Z,76.25
2019-02-14T03:31:52.512Z,76.82
2019-02-14T03:34:22.381Z,76.31
2019-02-14T03:36:52.198Z,74.31
2019-02-14T03:39:22.125Z,77.61
2019-02-14T03:41:52.123Z,80.08
2019-02-14T03:44:22.172Z,81.50
2019-02-14T03:46:52.060Z,81.14
2019-02-14T03:49:21.975Z,81.18
2019-02-14T03:51:52.003Z,81.26
2019-02-14T03:54:22.112Z,80.96
2019-02-14T03:56:52.062Z,80.58
2019-02-14T03:59:22.088Z,80.44
2019-02-14T04:01:51.921Z,81.27
2019-02-14T04:04:21.803Z,81.64
2019-02-14T04:06:51.792Z,81.33
2019-02-14T04:09:21.668Z,81.19
2019-02-14T04:11:51.516Z,81.48
2019-02-14T04:14:21.471Z,81.63
2019-02-14T04:16:51.367Z,81.17
2019-02-14T04:19:21.227Z,80.53
2019-02-14T04:21:51.175Z,80.55
2019-02-14T04:24:21.050Z,80.74
2019-02-14T04:26:52.371Z,81.05
2019-02-14T04:29:22.291Z,80.29
2019-02-14T04:31:52.154Z,80.62
2019-02-14T04:34:22.007Z,81.29
2019-02-14T04:36:51.956Z,81.54
2019-02-14T04:39:21.922Z,81.66
2019-02-14T04:41:51.787Z,81.82
2019-02-14T04:44:21.679Z,81.92
2019-02-14T04:46:51.675Z,82.10
2019-02-14T04:49:21.524Z,81.88
2019-02-14T04:51:51.481Z,81.90
2019-02-14T04:54:21.331Z,81.57
2019-02-14T04:56:51.223Z,81.79
2019-02-14T04:59:22.161Z,81.92
2019-02-14T05:01:53.082Z,82.24
2019-02-14T05:04:22.972Z,82.08
2019-02-14T05:06:52.797Z,82.04
2019-02-14T05:09:22.787Z,81.89
2019-02-14T05:11:52.623Z,81.42
2019-02-14T05:14:22.528Z,80.87
2019-02-14T05:16:52.384Z,80.31
2019-02-14T05:19:22.265Z,81.14
2019-02-14T05:21:52.219Z,82.96
2019-02-14T05:24:22.061Z,83.40
2019-02-14T05:26:52.014Z,84.01
2019-02-14T05:29:21.864Z,84.22
2019-02-14T05:31:51.738Z,83.63
2019-02-14T05:34:21.677Z,82.52
2019-02-14T05:36:54.705Z,81.83
2019-02-14T05:39:23.202Z,81.58
2019-02-14T05:41:53.099Z,81.59
2019-02-14T05:44:24.076Z,81.38
2019-02-14T05:46:54.043Z,81.25
2019-02-14T05:49:23.875Z,81.63
2019-02-14T05:51:53.748Z,82.62
2019-02-14T05:54:23.618Z,82.60
2019-02-14T05:56:53.454Z,82.37
2019-02-14T05:59:23.443Z,82.45
2019-02-14T06:01:53.291Z,82.47
2019-02-14T06:04:23.162Z,82.79
2019-02-14T06:07:00.763Z,82.80
2019-02-14T06:09:24.645Z,82.81
2019-02-14T06:11:54.571Z,82.89
2019-02-14T06:14:24.450Z,82.79
2019-02-14T06:16:54.324Z,82.48
2019-02-14T06:19:24.254Z,82.41
2019-02-14T06:21:54.170Z,82.54
2019-02-14T06:24:24.123Z,82.26
2019-02-14T06:26:53.998Z,82.09
2019-02-14T06:29:24.016Z,82.71
2019-02-14T06:31:54.428Z,82.27
2019-02-14T06:34:24.452Z,82.34
2019-02-14T06:36:54.287Z,82.08
2019-02-14T06:39:24.229Z,82.58
2019-02-14T06:41:54.052Z,81.24
2019-02-14T06:44:25.001Z,78.85
2019-02-14T06:46:55.142Z,78.26
2019-02-14T06:49:24.988Z,77.59
2019-02-14T06:51:54.809Z,79.27
2019-02-14T06:54:24.762Z,78.33
2019-02-14T06:56:54.599Z,76.79
2019-02-14T06:59:24.524Z,74.21
2019-02-14T07:01:54.531Z,66.23
2019-02-14T07:04:24.509Z,69.03
2019-02-14T07:06:54.463Z,67.00
2019-02-14T07:09:24.375Z,64.06
2019-02-14T07:11:54.219Z,61.61
2019-02-14T07:14:24.128Z,62.31
2019-02-14T07:16:54.001Z,60.80
2019-02-14T07:19:23.901Z,60.33
2019-02-14T07:21:53.773Z,60.39
2019-02-14T07:24:23.682Z,60.06
2019-02-14T07:26:53.552Z,60.04
2019-02-14T07:29:23.509Z,60.96
2019-02-14T07:31:53.371Z,62.77
2019-02-14T07:34:23.330Z,61.44
2019-02-14T07:36:53.158Z,60.89
2019-02-14T07:39:23.087Z,59.98
2019-02-14T07:41:52.916Z,60.15
2019-02-14T07:44:22.898Z,62.43
2019-02-14T07:46:53.891Z,62.57
2019-02-14T07:49:24.475Z,62.53
2019-02-14T07:51:54.296Z,67.32
2019-02-14T07:54:24.180Z,71.43
2019-02-14T07:56:54.037Z,73.77
2019-02-14T07:59:23.879Z,73.93
2019-02-14T08:01:53.743Z,74.37
2019-02-14T08:04:23.574Z,74.22
2019-02-14T08:06:53.440Z,74.50
2019-02-14T08:09:23.319Z,73.57
2019-02-14T08:11:53.316Z,72.51
2019-02-14T08:14:23.218Z,72.07
2019-02-14T08:16:53.165Z,70.66
2019-02-14T08:19:22.991Z,70.42
2019-02-14T08:21:52.901Z,70.29
2019-02-14T08:24:22.716Z,70.21
2019-02-14T08:26:52.624Z,70.15
2019-02-14T08:29:22.650Z,70.71
2019-02-14T08:31:52.626Z,69.94
2019-02-14T08:34:22.499Z,70.29
2019-02-14T08:36:52.305Z,70.11
2019-02-14T08:39:22.151Z,70.81
2019-02-14T08:41:52.056Z,69.80
2019-02-14T08:44:21.956Z,69.52
2019-02-14T08:46:51.968Z,69.50
2019-02-14T08:49:21.897Z,69.29
2019-02-14T08:51:51.725Z,67.61
2019-02-14T08:54:21.611Z,67.13
2019-02-14T08:56:51.448Z,66.34
2019-02-14T08:59:21.320Z,67.12
2019-02-14T09:01:51.143Z,66.65
2019-02-14T09:04:21.169Z,65.89
2019-02-14T09:06:51.167Z,65.51
2019-02-14T09:09:21.010Z,65.54
2019-02-14T09:11:50.882Z,64.67
2019-02-14T09:14:20.706Z,63.06
2019-02-14T09:16:50.569Z,61.71
2019-02-14T09:19:20.535Z,62.27
2019-02-14T09:21:50.404Z,62.07
2019-02-14T09:24:20.238Z,61.55
2019-02-14T09:26:50.099Z,59.92
2019-02-14T09:29:19.947Z,59.35
2019-02-14T09:31:49.809Z,57.46
2019-02-14T09:34:19.659Z,58.26
2019-02-14T09:36:49.680Z,56.01
2019-02-14T09:39:19.610Z,56.91
2019-02-14T09:41:49.621Z,55.06
2019-02-14T09:44:19.531Z,55.06
2019-02-14T09:46:49.375Z,54.29
2019-02-14T09:49:19.256Z,56.92
2019-02-14T09:51:49.081Z,54.66
2019-02-14T09:54:19.005Z,52.69
2019-02-14T09:56:48.898Z,53.10
2019-02-14T09:59:18.839Z,53.77
2019-02-14T10:01:48.739Z,54.97
2019-02-14T10:04:18.602Z,54.22
2019-02-14T10:06:48.574Z,50.96
2019-02-14T10:09:18.512Z,51.81
2019-02-14T10:11:48.425Z,51.29
2019-02-14T10:14:18.423Z,49.02
2019-02-14T10:16:48.365Z,51.55
2019-02-14T10:19:18.358Z,49.31
2019-02-14T10:21:48.290Z,49.99
2019-02-14T10:24:18.179Z,49.29
2019-02-14T10:26:48.031Z,50.83
2019-02-14T10:29:17.856Z,46.77
2019-02-14T10:31:47.792Z,46.99
2019-02-14T10:34:17.624Z,47.45
2019-02-14T10:36:47.654Z,46.09
2019-02-14T10:39:17.583Z,44.54
2019-02-14T10:41:47.526Z,44.68
2019-02-14T10:44:17.524Z,41.73
2019-02-14T10:46:47.330Z,42.56
2019-02-14T10:49:17.192Z,43.16
2019-02-14T10:51:47.086Z,41.02
2019-02-14T10:54:17.098Z,41.85
2019-02-14T10:56:47.001Z,41.33
2019-02-14T10:59:17.027Z,42.00
2019-02-14T11:01:47.015Z,41.57
2019-02-14T11:04:17.018Z,43.05
2019-02-14T11:06:46.891Z,42.38
2019-02-14T11:09:16.833Z,42.18
2019-02-14T11:11:46.787Z,42.62
2019-02-14T11:14:16.726Z,41.46
2019-02-14T11:16:46.711Z,41.68
2019-02-14T11:19:16.585Z,42.11
2019-02-14T11:21:46.571Z,43.73
2019-02-14T11:24:16.587Z,40.84
2019-02-14T11:26:46.496Z,40.64
2019-02-14T11:29:16.409Z,39.90
2019-02-14T11:31:46.251Z,39.88
2019-02-14T11:34:16.071Z,40.58
2019-02-14T11:36:45.961Z,40.21
2019-02-14T11:39:15.797Z,41.38
2019-02-14T11:41:45.662Z,40.40
2019-02-14T11:44:15.528Z,39.71
2019-02-14T11:46:51.285Z,39.39
2019-02-14T11:49:16.912Z,39.03
2019-02-14T11:51:46.832Z,39.14
2019-02-14T11:54:16.738Z,38.02
2019-02-14T11:56:46.614Z,37.83
2019-02-14T11:59:16.511Z,34.75
2019-02-14T12:01:55.009Z,38.24
2019-02-14T12:04:17.959Z,36.30
2019-02-14T12:06:47.998Z,34.52
2019-02-14T12:09:17.933Z,35.19
2019-02-14T12:11:47.835Z,34.42
2019-02-14T12:14:17.711Z,35.02
2019-02-14T12:16:47.640Z,34.05
2019-02-14T12:19:17.482Z,30.43
2019-02-14T12:21:47.418Z,31.12
2019-02-14T12:24:17.261Z,30.01
2019-02-14T12:26:47.188Z,30.23
2019-02-14T12:29:17.093Z,30.06
2019-02-14T12:31:46.980Z,30.27
2019-02-14T12:34:16.877Z,30.24
2019-02-14T12:36:46.778Z,33.04
2019-02-14T12:39:16.748Z,30.91
2019-02-14T12:41:46.764Z,32.44
2019-02-14T12:44:17.001Z,33.40
2019-02-14T12:46:46.930Z,34.86
2019-02-14T12:49:16.771Z,36.47
2019-02-14T12:51:46.658Z,34.39
2019-02-14T12:54:16.524Z,34.33
2019-02-14T12:56:46.584Z,33.03
2019-02-14T12:59:16.417Z,31.81
2019-02-14T13:01:46.395Z,30.99
2019-02-14T13:04:16.211Z,30.75
2019-02-14T13:06:46.467Z,30.05
2019-02-14T13:09:20.049Z,32.19
2019-02-14T13:11:48.080Z,29.23
2019-02-14T13:14:18.069Z,27.26
2019-02-14T13:16:48.015Z,28.07
2019-02-14T13:19:17.888Z,29.49
2019-02-14T13:21:47.734Z,29.75
2019-02-14T13:24:17.682Z,32.86
2019-02-14T13:26:47.585Z,27.59
2019-02-14T13:29:17.544Z,29.35
2019-02-14T13:31:47.360Z,28.14
2019-02-14T13:34:17.364Z,24.37
2019-02-14T13:36:47.259Z,25.69
2019-02-14T13:39:17.213Z,25.10
2019-02-14T13:41:47.117Z,23.37
2019-02-14T13:44:17.028Z,24.04
2019-02-14T13:46:46.945Z,24.25
2019-02-14T13:49:16.884Z,22.95
2019-02-14T13:51:46.771Z,24.85
2019-02-14T13:54:16.667Z,22.95
2019-02-14T13:56:53.887Z,24.06
2019-02-14T13:59:18.320Z,24.75
2019-02-14T14:01:48.140Z,23.53
2019-02-14T14:04:17.998Z,21.52
2019-02-14T14:06:47.945Z,24.08
2019-02-14T14:09:17.811Z,21.54
2019-02-14T14:11:47.756Z,21.96
2019-02-14T14:14:17.587Z,23.40
2019-02-14T14:16:47.446Z,24.01
2019-02-14T14:19:17.338Z,24.86
2019-02-14T14:21:47.273Z,22.89
2019-02-14T14:24:17.091Z,25.07
2019-02-14T14:26:46.985Z,24.76
2019-02-14T14:29:16.849Z,27.84
2019-02-14T14:31:46.868Z,25.27
2019-02-14T14:34:16.707Z,24.94
2019-02-14T14:36:46.563Z,23.25
2019-02-14T14:39:16.527Z,23.12
2019-02-14T14:41:46.348Z,22.83
2019-02-14T14:44:31.471Z,23.04
2019-02-14T14:47:10.231Z,25.61
2019-02-14T14:49:40.123Z,29.51
2019-02-14T14:52:10.083Z,28.45
2019-02-14T14:54:40.020Z,29.14
2019-02-14T14:57:09.913Z,28.35
2019-02-14T14:59:39.811Z,28.43
2019-02-14T15:02:09.717Z,27.21
2019-02-14T15:04:39.748Z,27.17
2019-02-14T15:07:09.638Z,28.26
2019-02-14T15:09:39.751Z,27.26
2019-02-14T15:12:09.666Z,28.04
2019-02-14T15:14:39.590Z,27.68
2019-02-14T15:17:09.418Z,26.59
2019-02-14T15:19:39.314Z,26.72
2019-02-14T15:22:09.223Z,26.31
2019-02-14T15:24:39.101Z,28.63
2019-02-14T15:27:08.953Z,26.92
2019-02-14T15:29:38.751Z,28.67
2019-02-14T15:32:08.639Z,29.10
2019-02-14T15:34:38.451Z,28.84
2019-02-14T15:37:08.422Z,27.61
2019-02-14T15:39:38.268Z,28.55
2019-02-14T15:42:08.153Z,29.81
2019-02-14T15:44:38.012Z,30.86
2019-02-14T15:47:08.031Z,28.88
2019-02-14T15:49:37.876Z,30.39
2019-02-14T15:52:07.841Z,30.75
2019-02-14T15:54:37.706Z,29.86
2019-02-14T15:57:07.602Z,29.22
2019-02-14T15:59:40.486Z,32.04
2019-02-14T16:02:10.159Z,33.53
2019-02-14T16:04:40.046Z,34.59
2019-02-14T16:07:09.942Z,33.37
2019-02-14T16:09:41.245Z,33.22
2019-02-14T16:12:11.339Z,33.58
2019-02-14T16:14:42.682Z,33.73
2019-02-14T16:17:13.715Z,32.39
2019-02-14T16:19:43.827Z,33.13
2019-02-14T16:22:15.727Z,36.04
2019-02-14T16:24:46.202Z,35.32
2019-02-14T16:27:16.227Z,34.21
2019-02-14T16:29:47.222Z,35.19
2019-02-14T16:32:17.793Z,34.20
2019-02-14T16:34:47.646Z,34.75
2019-02-14T16:37:17.599Z,35.09
2019-02-14T16:39:51.765Z,35.72
2019-02-14T16:42:19.055Z,36.43
2019-02-14T16:44:48.985Z,36.55
2019-02-14T16:47:18.878Z,36.48
2019-02-14T16:49:48.880Z,37.74
2019-02-14T16:52:18.791Z,37.73
2019-02-14T16:54:48.790Z,37.63
2019-02-14T16:57:18.703Z,38.84
2019-02-14T16:59:48.750Z,40.43
2019-02-14T17:02:18.685Z,41.22
2019-02-14T17:04:48.658Z,42.55
2019-02-14T17:07:18.493Z,43.73
2019-02-14T17:09:48.395Z,44.61
2019-02-14T17:12:18.390Z,45.19
2019-02-14T17:14:48.326Z,45.41
2019-02-14T17:17:27.554Z,46.05
2019-02-14T17:19:49.729Z,46.93
2019-02-14T17:22:19.597Z,46.91
2019-02-14T17:24:49.432Z,47.42
2019-02-14T17:27:19.395Z,47.44
2019-02-14T17:29:49.327Z,48.12
2019-02-14T17:32:19.267Z,48.68
2019-02-14T17:34:49.205Z,49.58
2019-02-14T17:37:19.220Z,49.55
2019-02-14T17:39:49.058Z,49.32
2019-02-14T17:42:18.998Z,51.05
2019-02-14T17:44:48.859Z,51.35
2019-02-14T17:47:18.799Z,51.67
2019-02-14T17:49:48.850Z,52.09
2019-02-14T17:52:18.800Z,53.02
2019-02-14T17:54:48.667Z,53.21
2019-02-14T17:57:18.518Z,52.50
2019-02-14T17:59:48.475Z,51.48
2019-02-14T18:02:19.036Z,52.02
2019-02-14T18:04:48.974Z,52.92
2019-02-14T18:07:18.907Z,53.44
2019-02-14T18:09:48.767Z,54.30
2019-02-14T18:12:18.657Z,55.08
2019-02-14T18:14:48.527Z,56.25
2019-02-14T18:17:18.434Z,56.80
2019-02-14T18:19:48.388Z,56.27
2019-02-14T18:22:18.228Z,56.70
2019-02-14T18:24:48.147Z,57.93
2019-02-14T18:27:18.078Z,58.42
2019-02-14T18:29:47.942Z,58.33
2019-02-14T18:32:17.810Z,57.44
2019-02-14T18:34:47.721Z,58.00
2019-02-14T18:37:17.661Z,59.14
2019-02-14T18:39:47.576Z,60.08
2019-02-14T18:42:17.459Z,60.32
2019-02-14T18:44:47.514Z,61.23
2019-02-14T18:47:17.558Z,61.32
2019-02-14T18:49:47.412Z,61.83
2019-02-14T18:52:17.353Z,62.45
2019-02-14T18:54:47.267Z,63.46
2019-02-14T18:57:17.391Z,62.87
2019-02-14T18:59:47.306Z,62.50
2019-02-14T19:02:17.198Z,63.16
2019-02-14T19:04:47.101Z,63.23
2019-02-14T19:07:16.996Z,64.49
2019-02-14T19:09:46.868Z,64.04
2019-02-14T19:12:17.039Z,63.46
2019-02-14T19:14:46.913Z,64.06
2019-02-14T19:17:16.805Z,64.83
2019-02-14T19:19:46.701Z,64.76
2019-02-14T19:22:16.625Z,65.26
2019-02-14T19:24:46.543Z,64.42
2019-02-14T19:27:16.442Z,63.86
2019-02-14T19:29:46.321Z,64.00
2019-02-14T19:32:16.203Z,63.65
2019-02-14T19:34:46.071Z,63.87
2019-02-14T19:37:15.909Z,64.26
2019-02-14T19:39:45.813Z,64.55
2019-02-14T19:42:15.718Z,64.94
2019-02-14T19:44:45.667Z,64.53
2019-02-14T19:47:15.617Z,64.02
2019-02-14T19:49:45.571Z,64.91
2019-02-14T19:52:15.576Z,65.52
2019-02-14T19:54:45.410Z,65.84
2019-02-14T19:57:15.555Z,65.83
2019-02-14T19:59:45.471Z,65.41
2019-02-14T20:02:15.495Z,64.77
2019-02-14T20:04:45.472Z,64.96
2019-02-14T20:07:15.440Z,65.71
2019-02-14T20:09:45.323Z,66.10
2019-02-14T20:12:15.199Z,66.19
2019-02-14T20:14:45.076Z,66.48
2019-02-14T20:17:15.083Z,67.11
2019-02-14T20:19:45.042Z,67.84
2019-02-14T20:22:14.910Z,68.50
2019-02-14T20:24:44.773Z,67.53
2019-02-14T20:27:14.730Z,67.36
2019-02-14T20:29:44.662Z,66.95
2019-02-14T20:32:14.631Z,66.96
2019-02-14T20:34:45.980Z,66.91
2019-02-14T20:37:17.275Z,67.33
2019-02-14T20:39:47.271Z,67.57
2019-02-14T20:42:17.272Z,67.77
2019-02-14T20:44:47.344Z,67.98
2019-02-14T20:47:17.171Z,67.32
2019-02-14T20:49:47.110Z,67.64
2019-02-14T20:52:17.033Z,67.86
2019-02-14T20:54:46.999Z,68.34
2019-02-14T20:57:16.936Z,68.15
2019-02-14T20:59:46.992Z,68.07
2019-02-14T21:02:17.033Z,68.62
2019-02-14T21:04:47.005Z,69.46
2019-02-14T21:07:16.921Z,69.98
2019-02-14T21:09:46.849Z,70.41
2019-02-14T21:12:16.850Z,70.67
2019-02-14T21:14:46.790Z,70.69
2019-02-14T21:17:16.737Z,70.52
2019-02-14T21:19:46.668Z,70.85
2019-02-14T21:22:18.655Z,70.63
2019-02-14T21:24:48.235Z,70.82
2019-02-14T21:27:18.232Z,71.22
2019-02-14T21:29:49.940Z,71.17
2019-02-14T21:32:19.909Z,70.97
2019-02-14T21:34:49.856Z,71.26
2019-02-14T21:37:19.839Z,71.33
2019-02-14T21:39:49.806Z,71.89
2019-02-14T21:42:22.550Z,71.99
2019-02-14T21:44:52.296Z,71.42
2019-02-14T21:47:22.187Z,71.11
2019-02-14T21:49:52.274Z,71.27
2019-02-14T21:52:22.196Z,71.59
2019-02-14T21:54:52.266Z,71.59
2019-02-14T21:57:22.270Z,71.59
2019-02-14T21:59:52.213Z,70.98
2019-02-14T22:02:23.251Z,70.47
2019-02-14T22:04:53.316Z,70.18
2019-02-14T22:07:23.238Z,69.97
2019-02-14T22:09:53.255Z,69.98
2019-02-14T22:12:39.077Z,70.01
2019-02-14T22:14:55.144Z,69.99
2019-02-14T22:17:25.257Z,70.28
2019-02-14T22:19:55.296Z,70.48
2019-02-14T22:22:25.205Z,70.20
2019-02-14T22:24:55.082Z,70.51
2019-02-14T22:27:24.927Z,71.16
2019-02-14T22:29:54.983Z,72.20
2019-02-14T22:32:24.946Z,72.32
2019-02-14T22:34:54.822Z,72.64
2019-02-14T22:37:24.813Z,72.67
2019-02-14T22:39:54.771Z,72.76
2019-02-14T22:42:24.617Z,73.00
2019-02-14T22:44:54.678Z,72.18
2019-02-14T22:47:24.560Z,71.60
2019-02-14T22:49:54.512Z,71.55
2019-02-14T22:52:24.415Z,71.42
2019-02-14T22:54:54.337Z,71.16
2019-02-14T22:57:24.293Z,71.07
2019-02-14T22:59:54.169Z,70.99
2019-02-14T23:02:24.500Z,71.19
2019-02-14T23:04:54.445Z,71.58
2019-02-14T23:07:24.425Z,72.62
2019-02-14T23:09:54.477Z,73.33
2019-02-14T23:12:24.487Z,73.84
2019-02-14T23:14:54.314Z,74.16
2019-02-14T23:17:24.183Z,74.46
2019-02-14T23:19:54.085Z,74.65
2019-02-14T23:22:24.035Z,74.79
2019-02-14T23:24:53.869Z,75.00
2019-02-14T23:27:23.892Z,75.22
2019-02-14T23:29:53.836Z,75.51
2019-02-14T23:32:23.787Z,76.09
2019-02-14T23:34:53.739Z,76.53
2019-02-14T23:37:23.704Z,76.78
2019-02-14T23:39:53.580Z,75.95
2019-02-14T23:42:23.588Z,74.98
2019-02-14T23:44:53.640Z,74.32
2019-02-14T23:47:23.570Z,74.40
2019-02-14T23:49:53.651Z,74.52
2019-02-14T23:52:23.492Z,74.79
2019-02-14T23:54:53.451Z,74.59
2019-02-14T23:57:23.362Z,74.92
2019-02-14T23:59:53.392Z,75.44
